createdAt,value
2022-09-13T00:01:32.107Z,4.03
2022-09-13T00:03:33.929Z,3.45
2022-09-13T00:05:36.421Z,3.22
2022-09-13T00:07:39.205Z,3.30
2022-09-13T00:09:40.677Z,3.55
2022-09-13T00:11:42.151Z,3.20
2022-09-13T00:13:43.813Z,3.83
2022-09-13T00:15:46.550Z,3.30
2022-09-13T00:17:48.363Z,3.10
2022-09-13T00:19:49.905Z,3.40
2022-09-13T00:21:51.388Z,3.40
2022-09-13T00:23:55.131Z,3.47
2022-09-13T00:26:03.440Z,3.60
2022-09-13T00:28:05.623Z,3.20
2022-09-13T00:30:08.691Z,3.30
2022-09-13T00:32:10.220Z,3.35
2022-09-13T00:34:11.690Z,3.40
2022-09-13T00:36:13.850Z,3.47
2022-09-13T00:38:15.298Z,4.30
2022-09-13T00:40:18.372Z,3.08
2022-09-13T00:42:25.261Z,3.67
2022-09-13T00:44:49.754Z,3.20
2022-09-13T00:46:52.728Z,3.50
2022-09-13T00:48:59.374Z,3.65
2022-09-13T00:51:02.414Z,3.63
2022-09-13T00:53:07.305Z,4.00
2022-09-13T00:55:13.358Z,4.90
2022-09-13T00:57:20.085Z,4.20
2022-09-13T00:59:31.687Z,3.50
2022-09-13T01:01:38.344Z,4.00
2022-09-13T01:03:41.462Z,3.53
2022-09-13T01:05:49.169Z,3.65
2022-09-13T01:09:53.813Z,3.38
2022-09-13T01:12:00.891Z,3.65
2022-09-13T01:14:06.129Z,3.88
2022-09-13T01:16:08.169Z,3.83
2022-09-13T01:18:11.326Z,4.05
2022-09-13T01:20:14.185Z,3.85
2022-09-13T01:22:44.383Z,4.78
2022-09-13T01:24:58.358Z,4.57
2022-09-13T01:27:28.653Z,4.53
2022-09-13T01:30:02.735Z,5.10
2022-09-13T01:32:15.569Z,5.50
2022-09-13T01:34:28.851Z,4.63
2022-09-13T01:36:46.276Z,4.97
2022-09-13T01:38:59.343Z,4.18
2022-09-13T01:41:12.911Z,4.07
2022-09-13T01:43:31.150Z,4.03
2022-09-13T01:45:43.604Z,3.92
2022-09-13T01:47:52.065Z,3.42
2022-09-13T01:50:04.777Z,4.10
2022-09-13T01:52:14.126Z,4.15
2022-09-13T01:54:19.816Z,3.63
2022-09-13T01:56:26.813Z,3.85
2022-09-13T01:58:35.753Z,3.90
2022-09-13T02:00:44.934Z,3.22
2022-09-13T02:02:50.282Z,3.38
2022-09-13T02:04:56.002Z,3.33
2022-09-13T02:07:09.358Z,3.17
2022-09-13T02:09:17.539Z,3.60
2022-09-13T02:11:23.111Z,3.83
2022-09-13T02:13:31.815Z,4.07
2022-09-13T02:15:38.772Z,3.72
2022-09-13T02:17:45.984Z,3.60
2022-09-13T02:19:52.125Z,4.28
2022-09-13T02:21:58.506Z,4.03
2022-09-13T02:24:03.588Z,3.53
2022-09-13T02:26:07.476Z,3.40
2022-09-13T02:28:12.405Z,3.42
2022-09-13T02:30:15.107Z,3.53
2022-09-13T02:32:21.943Z,3.58
2022-09-13T02:34:31.369Z,3.17
2022-09-13T02:36:36.631Z,3.58
2022-09-13T02:38:44.867Z,3.17
2022-09-13T02:40:53.098Z,4.03
2022-09-13T02:42:58.789Z,4.22
2022-09-13T02:45:00.251Z,4.38
2022-09-13T02:47:14.213Z,4.15
2022-09-13T02:49:21.598Z,5.53
2022-09-13T02:51:33.170Z,4.93
2022-09-13T02:53:40.737Z,5.05
2022-09-13T02:55:45.452Z,5.40
2022-09-13T02:58:02.896Z,5.13
2022-09-13T03:00:05.129Z,4.80
2022-09-13T03:02:11.075Z,4.70
2022-09-13T03:04:12.649Z,3.95
2022-09-13T03:06:22.535Z,3.90
2022-09-13T03:08:26.681Z,3.92
2022-09-13T03:10:35.742Z,4.40
2022-09-13T03:12:57.298Z,7.18
2022-09-13T03:15:11.099Z,11.18
2022-09-13T03:17:18.772Z,10.15
2022-09-13T03:21:59.339Z,5.55
2022-09-13T03:24:12.737Z,5.72
2022-09-13T03:26:25.697Z,5.13
2022-09-13T03:28:39.495Z,5.10
2022-09-13T03:30:48.908Z,4.78
2022-09-13T03:32:58.255Z,4.18
2022-09-13T03:35:07.207Z,4.32
2022-09-13T03:37:16.558Z,3.60
2022-09-13T03:39:33.037Z,3.83
2022-09-13T03:41:40.634Z,3.58
2022-09-13T03:43:47.616Z,3.95
2022-09-13T03:45:53.034Z,3.25
2022-09-13T03:47:56.255Z,3.50
2022-09-13T03:49:58.384Z,3.65
2022-09-13T03:52:00.077Z,3.78
2022-09-13T03:54:04.947Z,3.60
2022-09-13T03:56:14.256Z,3.75
2022-09-13T03:58:18.538Z,3.63
2022-09-13T04:00:20.401Z,4.00
2022-09-13T04:02:23.172Z,3.92
2022-09-13T04:04:24.662Z,4.55
2022-09-13T04:06:26.099Z,4.25
2022-09-13T04:08:27.507Z,4.22
2022-09-13T04:12:31.659Z,3.88
2022-09-13T04:14:33.095Z,4.30
2022-09-13T04:16:34.665Z,3.95
2022-09-13T04:18:36.262Z,3.97
2022-09-13T04:20:37.781Z,4.80
2022-09-13T04:22:39.584Z,4.18
2022-09-13T04:24:41.094Z,4.22
2022-09-13T04:26:42.783Z,3.95
2022-09-13T04:28:45.600Z,4.32
2022-09-13T04:30:48.224Z,3.60
2022-09-13T04:32:49.771Z,3.35
2022-09-13T04:34:51.224Z,3.78
2022-09-13T04:36:53.045Z,3.60
2022-09-13T04:38:54.515Z,3.83
2022-09-13T04:40:56.211Z,4.18
2022-09-13T04:42:57.690Z,5.05
2022-09-13T04:45:00.633Z,4.05
2022-09-13T04:47:02.152Z,4.40
2022-09-13T04:49:04.033Z,3.60
2022-09-13T04:51:05.910Z,4.00
2022-09-13T04:53:07.587Z,4.07
2022-09-13T04:55:09.364Z,4.18
2022-09-13T04:57:10.815Z,8.68
2022-09-13T04:59:12.722Z,4.60
2022-09-13T05:01:15.655Z,4.53
2022-09-13T05:03:17.125Z,4.10
2022-09-13T05:05:18.591Z,6.13
2022-09-13T05:07:20.022Z,6.80
2022-09-13T05:09:21.456Z,4.55
2022-09-13T05:11:24.725Z,4.32
2022-09-13T05:13:26.553Z,4.53
2022-09-13T05:15:28.073Z,4.28
2022-09-13T05:17:31.199Z,6.28
2022-09-13T05:19:32.780Z,4.57
2022-09-13T05:21:34.340Z,8.75
2022-09-13T05:23:35.812Z,6.25
2022-09-13T05:25:37.254Z,6.93
2022-09-13T05:27:38.679Z,5.90
2022-09-13T05:29:40.285Z,6.97
2022-09-13T05:31:43.043Z,5.00
2022-09-13T05:33:47.811Z,6.03
2022-09-13T05:35:50.588Z,7.30
2022-09-13T05:37:52.014Z,5.88
2022-09-13T05:42:13.949Z,5.43
2022-09-13T05:44:15.442Z,7.70
2022-09-13T05:46:18.746Z,6.65
2022-09-13T05:48:20.390Z,8.10
2022-09-13T05:50:56.053Z,5.07
2022-09-13T05:52:44.607Z,7.35
2022-09-13T05:54:46.091Z,6.70
2022-09-13T05:56:47.550Z,6.32
2022-09-13T05:58:50.348Z,6.63
2022-09-13T06:00:53.369Z,5.78
2022-09-13T06:02:56.081Z,5.90
2022-09-13T06:04:57.551Z,6.53
2022-09-13T06:09:01.632Z,6.78
2022-09-13T06:13:05.884Z,6.07
2022-09-13T06:15:08.661Z,6.32
2022-09-13T06:17:10.106Z,6.53
2022-09-13T06:21:14.253Z,6.45
2022-09-13T06:23:17.307Z,6.15
2022-09-13T06:25:18.761Z,6.82
2022-09-13T06:27:20.435Z,6.00
2022-09-13T06:29:21.858Z,6.20
2022-09-13T06:33:25.618Z,7.10
2022-09-13T06:37:28.479Z,7.63
2022-09-13T06:39:31.271Z,7.95
2022-09-13T06:41:32.796Z,7.70
2022-09-13T06:43:34.900Z,7.43
2022-09-13T06:45:36.323Z,7.13
2022-09-13T06:49:39.100Z,6.95
2022-09-13T06:51:40.674Z,6.55
2022-09-13T06:53:43.253Z,7.82
2022-09-13T06:55:46.107Z,7.32
2022-09-13T06:57:47.550Z,7.68
2022-09-13T06:59:48.980Z,6.95
2022-09-13T07:01:50.527Z,8.40
2022-09-13T07:03:53.988Z,7.10
2022-09-13T07:05:55.393Z,6.55
2022-09-13T07:09:58.156Z,6.57
2022-09-13T07:12:01.270Z,7.40
2022-09-13T07:14:03.127Z,6.97
2022-09-13T07:16:06.503Z,6.78
2022-09-13T07:18:07.955Z,7.45
2022-09-13T07:20:09.638Z,8.05
2022-09-13T07:22:11.071Z,7.10
2022-09-13T07:24:12.691Z,7.32
2022-09-13T07:26:14.376Z,9.27
2022-09-13T07:28:17.141Z,7.97
2022-09-13T07:30:18.563Z,6.50
2022-09-13T07:32:20.075Z,6.50
2022-09-13T07:34:22.868Z,7.03
2022-09-13T07:36:25.671Z,6.07
2022-09-13T07:38:27.145Z,7.82
2022-09-13T07:40:28.589Z,6.32
2022-09-13T07:42:30.014Z,6.63
2022-09-13T07:44:33.201Z,7.43
2022-09-13T07:46:36.248Z,7.15
2022-09-13T07:48:39.494Z,6.53
2022-09-13T07:50:40.949Z,6.47
2022-09-13T07:52:42.381Z,6.22
2022-09-13T07:54:43.817Z,6.20
2022-09-13T07:56:45.829Z,7.10
2022-09-13T07:58:49.112Z,6.28
2022-09-13T08:00:51.982Z,6.22
2022-09-13T08:02:53.429Z,7.30
2022-09-13T08:04:54.849Z,6.85
2022-09-13T08:06:56.304Z,7.00
2022-09-13T08:08:58.085Z,7.40
2022-09-13T08:11:00.758Z,6.80
2022-09-13T08:13:02.216Z,7.03
2022-09-13T08:15:04.230Z,6.18
2022-09-13T08:17:07.022Z,6.15
2022-09-13T08:19:13.045Z,7.28
2022-09-13T08:21:15.319Z,7.05
2022-09-13T08:23:16.798Z,7.18
2022-09-13T08:25:18.248Z,7.47
2022-09-13T08:27:19.700Z,7.28
2022-09-13T08:29:21.144Z,6.50
2022-09-13T08:31:22.666Z,7.40
2022-09-13T08:33:25.689Z,6.88
2022-09-13T08:35:27.226Z,7.45
2022-09-13T08:37:28.658Z,6.95
2022-09-13T08:39:30.581Z,8.15
2022-09-13T08:41:56.447Z,7.03
2022-09-13T08:44:02.529Z,6.75
2022-09-13T08:46:07.145Z,7.75
2022-09-13T08:48:14.137Z,8.07
2022-09-13T08:50:21.797Z,7.22
2022-09-13T08:54:28.522Z,7.18
2022-09-13T08:56:38.673Z,7.03
2022-09-13T08:59:02.936Z,7.22
2022-09-13T09:01:08.796Z,7.13
2022-09-13T09:03:22.112Z,7.15
2022-09-13T09:05:26.499Z,6.90
2022-09-13T09:07:33.000Z,6.22
2022-09-13T09:09:39.776Z,6.88
2022-09-13T09:11:48.370Z,8.07
2022-09-13T09:13:55.192Z,8.68
2022-09-13T09:16:00.046Z,7.78
2022-09-13T09:18:06.182Z,7.03
2022-09-13T09:20:19.726Z,6.07
2022-09-13T09:22:25.443Z,6.07
2022-09-13T09:24:26.946Z,7.35
2022-09-13T09:26:31.035Z,7.57
2022-09-13T09:28:32.500Z,7.00
2022-09-13T09:30:55.515Z,7.55
2022-09-13T09:33:09.560Z,6.55
2022-09-13T09:35:20.896Z,5.93
2022-09-13T09:37:25.226Z,7.00
2022-09-13T09:39:30.007Z,8.35
2022-09-13T09:41:33.493Z,6.82
2022-09-13T09:43:39.811Z,6.50
2022-09-13T09:45:43.258Z,7.60
2022-09-13T09:47:47.444Z,6.85
2022-09-13T09:49:55.495Z,6.28
2022-09-13T09:51:58.176Z,6.20
2022-09-13T09:54:03.158Z,6.53
2022-09-13T09:56:12.998Z,6.47
2022-09-13T09:58:15.206Z,6.35
2022-09-13T10:00:18.048Z,6.55
2022-09-13T10:02:21.713Z,5.88
2022-09-13T10:04:24.465Z,5.57
2022-09-13T10:06:27.471Z,5.78
2022-09-13T10:08:33.114Z,6.20
2022-09-13T10:10:39.959Z,5.55
2022-09-13T10:12:41.497Z,5.43
2022-09-13T10:14:45.755Z,6.10
2022-09-13T10:16:47.283Z,5.20
2022-09-13T10:18:48.857Z,5.60
2022-09-13T10:21:01.498Z,5.55
2022-09-13T10:23:12.367Z,5.72
2022-09-13T10:25:15.328Z,6.53
2022-09-13T10:27:24.410Z,5.95
2022-09-13T10:29:28.209Z,5.97
2022-09-13T10:31:34.518Z,5.60
2022-09-13T10:33:38.414Z,5.25
2022-09-13T10:35:39.957Z,6.57
2022-09-13T10:37:44.593Z,6.03
2022-09-13T10:39:58.074Z,6.35
2022-09-13T10:42:02.741Z,5.75
2022-09-13T10:44:22.916Z,5.00
2022-09-13T10:48:28.572Z,5.18
2022-09-13T10:50:30.610Z,5.13
2022-09-13T10:52:34.276Z,5.13
2022-09-13T10:54:35.729Z,5.53
2022-09-13T10:56:37.650Z,5.35
2022-09-13T10:58:39.273Z,6.50
2022-09-13T11:00:54.295Z,5.53
2022-09-13T11:03:13.379Z,5.85
2022-09-13T11:05:22.514Z,5.53
2022-09-13T11:07:40.955Z,5.72
2022-09-13T11:09:52.925Z,5.47
2022-09-13T11:12:02.551Z,5.53
2022-09-13T11:14:25.592Z,6.13
2022-09-13T11:16:42.886Z,6.63
2022-09-13T11:19:08.464Z,6.97
2022-09-13T11:21:24.412Z,6.95
2022-09-13T11:23:43.173Z,6.75
2022-09-13T11:25:57.730Z,6.47
2022-09-13T11:28:08.267Z,7.38
2022-09-13T11:30:15.754Z,7.78
2022-09-13T11:32:36.750Z,8.00
2022-09-13T11:34:47.317Z,6.95
2022-09-13T11:37:07.015Z,7.53
2022-09-13T11:39:19.508Z,8.57
2022-09-13T11:41:31.482Z,8.05
2022-09-13T11:43:47.337Z,8.13
2022-09-13T11:45:59.255Z,7.63
2022-09-13T11:48:31.362Z,8.00
2022-09-13T11:50:41.351Z,8.27
2022-09-13T11:52:56.537Z,8.32
2022-09-13T11:55:06.090Z,8.45
2022-09-13T11:57:13.942Z,8.70
2022-09-13T11:59:27.979Z,8.00
2022-09-13T12:01:34.275Z,8.35
2022-09-13T12:03:44.979Z,7.80
2022-09-13T12:05:51.006Z,8.00
2022-09-13T12:07:56.176Z,7.68
2022-09-13T12:10:03.350Z,8.50
2022-09-13T12:12:07.373Z,7.70
2022-09-13T12:14:15.252Z,8.07
2022-09-13T12:16:22.763Z,9.10
2022-09-13T12:20:35.209Z,7.90
2022-09-13T12:22:36.933Z,8.07
2022-09-13T12:24:42.262Z,7.25
2022-09-13T12:26:50.884Z,8.18
2022-09-13T12:28:57.186Z,7.45
2022-09-13T12:31:02.385Z,7.80
2022-09-13T12:33:06.240Z,7.28
2022-09-13T12:35:14.030Z,7.85
2022-09-13T12:37:29.376Z,8.32
2022-09-13T12:39:45.003Z,7.85
2022-09-13T12:42:01.386Z,8.10
2022-09-13T12:44:33.825Z,7.22
2022-09-13T12:46:57.638Z,6.82
2022-09-13T12:49:29.635Z,7.72
2022-09-13T12:51:45.821Z,7.22
2022-09-13T12:54:06.422Z,8.13
2022-09-13T12:56:29.328Z,8.32
2022-09-13T12:58:53.238Z,7.75
2022-09-13T13:01:08.995Z,6.55
2022-09-13T13:03:15.631Z,6.85
2022-09-13T13:05:24.103Z,7.90
2022-09-13T13:07:26.995Z,7.57
2022-09-13T13:09:36.380Z,7.40
2022-09-13T13:11:45.288Z,6.28
2022-09-13T13:13:55.077Z,6.93
2022-09-13T13:16:02.859Z,6.50
2022-09-13T13:18:23.024Z,7.45
2022-09-13T13:21:04.505Z,6.53
2022-09-13T13:26:00.882Z,7.22
2022-09-13T13:28:02.772Z,8.25
2022-09-13T13:30:42.802Z,6.93
2022-09-13T13:33:05.504Z,6.97
2022-09-13T13:35:29.498Z,6.55
2022-09-13T13:37:37.032Z,5.90
2022-09-13T13:41:54.923Z,8.00
2022-09-13T13:43:56.416Z,7.10
2022-09-13T13:46:19.908Z,7.38
2022-09-13T13:48:35.989Z,8.20
2022-09-13T13:51:11.033Z,8.00
2022-09-13T13:53:42.461Z,7.95
2022-09-13T13:55:45.887Z,9.32
2022-09-13T13:57:59.929Z,9.43
2022-09-13T14:00:11.107Z,8.85
2022-09-13T14:02:14.010Z,9.93
2022-09-13T14:05:01.431Z,9.20
2022-09-13T14:07:19.596Z,8.35
2022-09-13T14:09:36.683Z,8.40
2022-09-13T14:11:54.282Z,8.32
2022-09-13T14:14:14.344Z,7.75
2022-09-13T14:16:33.139Z,8.82
2022-09-13T14:18:53.335Z,8.48
2022-09-13T14:20:59.750Z,8.00
2022-09-13T14:23:17.185Z,8.02
2022-09-13T14:25:24.479Z,7.78
2022-09-13T14:27:29.628Z,7.95
2022-09-13T14:29:32.592Z,8.18
2022-09-13T14:31:34.409Z,7.60
2022-09-13T14:33:37.389Z,7.10
2022-09-13T14:35:40.833Z,7.80
2022-09-13T14:37:42.289Z,8.30
2022-09-13T14:39:54.871Z,9.77
2022-09-13T14:42:01.293Z,9.70
2022-09-13T14:44:23.728Z,8.57
2022-09-13T14:46:37.841Z,9.10
2022-09-13T14:48:45.155Z,9.40
2022-09-13T14:50:50.271Z,8.90
2022-09-13T14:52:55.733Z,8.45
2022-09-13T14:55:00.835Z,7.57
2022-09-13T14:57:05.177Z,7.57
2022-09-13T14:59:15.517Z,9.00
2022-09-13T15:01:19.852Z,9.73
2022-09-13T15:03:23.480Z,7.93
2022-09-13T15:05:27.681Z,8.73
2022-09-13T15:07:30.955Z,8.68
2022-09-13T15:09:32.911Z,11.15
2022-09-13T15:11:36.153Z,10.63
2022-09-13T15:13:37.618Z,12.25
2022-09-13T15:15:40.028Z,8.77
2022-09-13T15:17:51.950Z,16.52
2022-09-13T15:20:03.321Z,8.60
2022-09-13T15:22:14.125Z,10.23
2022-09-13T15:24:25.590Z,9.88
2022-09-13T15:26:27.309Z,6.93
2022-09-13T15:28:31.627Z,7.50
2022-09-13T15:30:41.168Z,7.15
2022-09-13T15:32:44.132Z,6.57
2022-09-13T15:34:48.134Z,9.55
2022-09-13T15:37:08.238Z,9.18
2022-09-13T15:39:16.634Z,7.15
2022-09-13T15:41:19.822Z,8.50
2022-09-13T15:43:21.718Z,7.93
2022-09-13T15:45:23.720Z,7.60
2022-09-13T15:47:25.265Z,7.13
2022-09-13T15:49:28.711Z,5.72
2022-09-13T15:51:30.228Z,5.75
2022-09-13T15:53:33.063Z,6.72
2022-09-13T15:55:34.534Z,5.30
2022-09-13T15:57:36.609Z,5.32
2022-09-13T15:59:38.099Z,5.68
2022-09-13T16:01:39.669Z,5.00
2022-09-13T16:03:41.442Z,5.00
2022-09-13T16:05:43.001Z,6.35
2022-09-13T16:07:44.961Z,10.38
2022-09-13T16:09:48.093Z,8.32
2022-09-13T16:11:50.856Z,5.50
2022-09-13T16:13:52.580Z,6.25
2022-09-13T16:15:57.661Z,5.13
2022-09-13T16:17:59.501Z,4.95
2022-09-13T16:20:01.159Z,6.00
2022-09-13T16:22:02.750Z,4.78
2022-09-13T16:24:04.757Z,5.32
2022-09-13T16:26:07.624Z,4.82
2022-09-13T16:28:15.142Z,6.10
2022-09-13T16:32:19.258Z,5.30
2022-09-13T16:34:20.792Z,12.88
2022-09-13T16:36:22.340Z,4.82
2022-09-13T16:38:23.848Z,6.15
2022-09-13T16:40:25.367Z,13.93
2022-09-13T16:42:28.459Z,6.07
2022-09-13T16:44:30.258Z,6.75
2022-09-13T16:46:33.452Z,7.63
2022-09-13T16:48:35.353Z,6.18
2022-09-13T16:50:39.918Z,6.85
2022-09-13T16:52:41.615Z,5.85
2022-09-13T16:54:54.332Z,6.13
2022-09-13T16:56:55.860Z,7.30
2022-09-13T16:58:58.962Z,7.00
2022-09-13T17:01:04.624Z,6.45
2022-09-13T17:03:09.588Z,5.30
2022-09-13T17:05:11.352Z,5.90
2022-09-13T17:07:13.971Z,6.55
2022-09-13T17:09:15.501Z,6.55
2022-09-13T17:11:19.347Z,5.85
2022-09-13T17:13:21.292Z,6.82
2022-09-13T17:15:24.132Z,5.95
2022-09-13T17:17:26.337Z,5.45
2022-09-13T17:19:30.390Z,6.00
2022-09-13T17:21:32.638Z,6.10
2022-09-13T17:23:34.088Z,7.75
2022-09-13T17:25:35.622Z,9.70
2022-09-13T17:27:37.274Z,6.75
2022-09-13T17:29:38.720Z,8.63
2022-09-13T17:31:42.998Z,9.82
2022-09-13T17:33:44.704Z,6.32
2022-09-13T17:35:46.161Z,9.75
2022-09-13T17:37:47.691Z,6.50
2022-09-13T17:39:49.187Z,7.00
2022-09-13T17:41:50.686Z,6.10
2022-09-13T17:43:53.062Z,6.15
2022-09-13T17:45:54.599Z,5.97
2022-09-13T17:47:57.394Z,5.35
2022-09-13T17:49:58.867Z,6.40
2022-09-13T17:52:00.300Z,5.97
2022-09-13T17:54:04.017Z,8.95
2022-09-13T17:56:05.936Z,6.53
2022-09-13T17:58:07.427Z,6.50
2022-09-13T18:00:09.746Z,6.70
2022-09-13T18:02:11.291Z,5.97
2022-09-13T18:04:15.787Z,6.55
2022-09-13T18:06:17.246Z,7.38
2022-09-13T18:08:18.888Z,6.18
2022-09-13T18:10:42.626Z,5.95
2022-09-13T18:12:41.774Z,5.80
2022-09-13T18:14:43.330Z,5.60
2022-09-13T18:16:45.309Z,5.03
2022-09-13T18:18:47.186Z,4.85
2022-09-13T18:20:49.987Z,6.00
2022-09-13T18:22:51.424Z,4.55
2022-09-13T18:24:53.279Z,4.00
2022-09-13T18:26:54.732Z,4.45
2022-09-13T18:28:57.870Z,5.68
2022-09-13T18:31:01.290Z,5.38
2022-09-13T18:33:02.922Z,5.05
2022-09-13T18:35:05.471Z,11.70
2022-09-13T18:37:08.241Z,9.13
2022-09-13T18:39:15.509Z,5.60
2022-09-13T18:41:19.093Z,7.25
2022-09-13T18:43:20.592Z,5.93
2022-09-13T18:45:22.053Z,8.27
2022-09-13T18:47:23.644Z,5.45
2022-09-13T18:49:25.162Z,5.50
2022-09-13T18:51:29.196Z,5.70
2022-09-13T18:53:35.125Z,5.53
2022-09-13T18:55:39.890Z,5.38
2022-09-13T18:57:41.721Z,5.95
2022-09-13T18:59:43.314Z,5.50
2022-09-13T19:01:45.450Z,5.53
2022-09-13T19:03:48.312Z,5.78
2022-09-13T19:05:52.444Z,5.72
2022-09-13T19:07:54.156Z,6.63
2022-09-13T19:09:57.164Z,10.85
2022-09-13T19:11:58.609Z,6.70
2022-09-13T19:14:00.113Z,7.03
2022-09-13T19:16:03.410Z,8.90
2022-09-13T19:18:05.031Z,6.78
2022-09-13T19:20:07.517Z,8.32
2022-09-13T19:22:08.983Z,7.13
2022-09-13T19:24:16.250Z,6.55
2022-09-13T19:26:22.673Z,6.28
2022-09-13T19:28:26.487Z,6.68
2022-09-13T19:30:27.922Z,6.90
2022-09-13T19:32:29.403Z,6.43
2022-09-13T19:34:30.900Z,7.22
2022-09-13T19:36:34.535Z,6.25
2022-09-13T19:38:36.755Z,6.93
2022-09-13T19:40:38.277Z,6.50
2022-09-13T19:42:41.117Z,6.57
2022-09-13T19:44:42.566Z,7.07
2022-09-13T19:46:44.124Z,7.10
2022-09-13T19:48:46.801Z,6.35
2022-09-13T19:50:48.287Z,9.07
2022-09-13T19:52:49.721Z,7.45
2022-09-13T19:54:51.361Z,5.93
2022-09-13T19:56:52.849Z,5.50
2022-09-13T19:58:55.933Z,5.22
2022-09-13T20:01:08.341Z,6.85
2022-09-13T20:03:10.119Z,5.30
2022-09-13T20:05:11.653Z,5.18
2022-09-13T20:07:13.264Z,5.40
2022-09-13T20:09:17.073Z,6.03
2022-09-13T20:11:19.774Z,6.20
2022-09-13T20:13:21.266Z,5.53
2022-09-13T20:15:25.772Z,7.10
2022-09-13T20:17:27.307Z,7.65
2022-09-13T20:19:49.285Z,6.72
2022-09-13T20:21:50.395Z,11.13
2022-09-13T20:23:54.212Z,8.13
2022-09-13T20:25:55.647Z,6.88
2022-09-13T20:27:57.097Z,7.03
2022-09-13T20:29:58.815Z,7.30
2022-09-13T20:32:02.148Z,7.60
2022-09-13T20:34:05.719Z,7.05
2022-09-13T20:36:09.151Z,6.60
2022-09-13T20:38:10.580Z,6.90
2022-09-13T20:40:12.265Z,7.60
2022-09-13T20:42:13.788Z,5.75
2022-09-13T20:44:15.249Z,7.25
2022-09-13T20:46:18.625Z,7.30
2022-09-13T20:48:21.591Z,10.25
2022-09-13T20:50:23.182Z,8.20
2022-09-13T20:52:24.673Z,6.57
2022-09-13T20:54:26.438Z,7.32
2022-09-13T20:56:29.041Z,7.35
2022-09-13T20:58:30.619Z,7.90
2022-09-13T21:00:32.217Z,6.32
2022-09-13T21:02:33.748Z,7.68
2022-09-13T21:04:36.543Z,11.80
2022-09-13T21:06:39.580Z,14.32
2022-09-13T21:08:42.515Z,11.23
2022-09-13T21:10:44.015Z,7.57
2022-09-13T21:12:49.765Z,8.68
2022-09-13T21:14:51.204Z,7.60
2022-09-13T21:16:52.692Z,7.18
2022-09-13T21:18:55.839Z,8.40
2022-09-13T21:21:00.118Z,8.23
2022-09-13T21:23:01.616Z,9.00
2022-09-13T21:25:03.580Z,8.95
2022-09-13T21:27:05.429Z,9.57
2022-09-13T21:29:06.884Z,9.32
2022-09-13T21:31:13.520Z,6.82
2022-09-13T21:33:16.638Z,6.45
2022-09-13T21:35:18.168Z,6.20
2022-09-13T21:37:20.997Z,7.18
2022-09-13T21:39:23.150Z,7.18
2022-09-13T21:41:26.186Z,5.03
2022-09-13T21:43:28.348Z,5.18
2022-09-13T21:45:29.787Z,4.53
2022-09-13T21:47:31.257Z,4.68
2022-09-13T21:49:32.769Z,3.22
2022-09-13T21:51:35.701Z,3.40
2022-09-13T21:53:39.131Z,3.08
2022-09-13T21:55:40.588Z,3.30
2022-09-13T21:57:43.072Z,2.40
2022-09-13T21:59:44.521Z,2.22
2022-09-13T22:01:47.761Z,2.33
2022-09-13T22:03:50.701Z,2.03
2022-09-13T22:05:55.915Z,2.42
2022-09-13T22:07:57.391Z,2.03
2022-09-13T22:10:00.189Z,2.20
2022-09-13T22:12:02.104Z,2.00
2022-09-13T22:14:03.744Z,2.30
2022-09-13T22:16:07.385Z,2.25
2022-09-13T22:18:08.855Z,2.45
2022-09-13T22:20:10.381Z,2.30
2022-09-13T22:22:11.814Z,2.22
2022-09-13T22:24:16.217Z,2.00
2022-09-13T22:26:22.244Z,2.60
2022-09-13T22:28:23.680Z,2.10
2022-09-13T22:30:25.222Z,2.22
2022-09-13T22:32:30.505Z,2.08
2022-09-13T22:34:32.157Z,2.30
2022-09-13T22:36:34.004Z,2.22
2022-09-13T22:38:37.003Z,2.30
2022-09-13T22:40:38.439Z,3.28
2022-09-13T22:42:41.182Z,3.50
2022-09-13T22:44:42.626Z,3.78
2022-09-13T22:46:45.593Z,3.85
2022-09-13T22:48:47.494Z,4.30
2022-09-13T22:50:50.942Z,4.45
2022-09-13T22:52:52.388Z,4.32
2022-09-13T22:54:53.882Z,4.30
2022-09-13T22:56:55.408Z,4.00
2022-09-13T22:59:00.154Z,3.70
2022-09-13T23:01:03.711Z,3.50
2022-09-13T23:03:05.347Z,3.50
2022-09-13T23:05:07.370Z,3.05
2022-09-13T23:07:09.092Z,2.83
2022-09-13T23:09:12.621Z,3.03
2022-09-13T23:11:16.289Z,2.70
2022-09-13T23:13:17.950Z,2.60
2022-09-13T23:15:20.893Z,2.80
2022-09-13T23:17:22.451Z,3.20
2022-09-13T23:19:24.028Z,3.25
2022-09-13T23:21:27.920Z,3.22
2022-09-13T23:23:29.614Z,4.18
2022-09-13T23:25:32.562Z,3.95
2022-09-13T23:27:34.194Z,3.80
2022-09-13T23:29:35.884Z,3.70
2022-09-13T23:31:38.895Z,4.00
2022-09-13T23:33:42.149Z,4.63
2022-09-13T23:35:43.818Z,3.70
2022-09-13T23:37:47.744Z,3.90
2022-09-13T23:39:49.466Z,3.78
2022-09-13T23:41:51.084Z,3.83
2022-09-13T23:43:53.198Z,3.45
2022-09-13T23:45:55.069Z,3.75
2022-09-13T23:47:58.025Z,3.28
2022-09-13T23:49:59.595Z,2.72
2022-09-13T23:52:01.346Z,3.17
2022-09-13T23:54:03.023Z,2.85
2022-09-13T23:56:05.157Z,3.50
2022-09-13T23:58:06.808Z,3.13
